sensor_id;sensor_type;location;lat;lon;timestamp;P1;durP1;ratioP1;P2;durP2;ratioP2
76103;SDS011;64831;44.870;37.336;2023-04-25T00:00:03;3.75;;;2.65;;
76103;SDS011;64831;44.870;37.336;2023-04-25T00:02:37;3.40;;;1.50;;
76103;SDS011;64831;44.870;37.336;2023-04-25T00:05:03;4.57;;;2.95;;
76103;SDS011;64831;44.870;37.336;2023-04-25T00:07:30;3.50;;;2.08;;
76103;SDS011;64831;44.870;37.336;2023-04-25T00:09:57;5.18;;;2.40;;
76103;SDS011;64831;44.870;37.336;2023-04-25T00:12:24;1.77;;;1.52;;
76103;SDS011;64831;44.870;37.336;2023-04-25T00:14:50;5.20;;;2.30;;
76103;SDS011;64831;44.870;37.336;2023-04-25T00:17:16;4.63;;;3.03;;
76103;SDS011;64831;44.870;37.336;2023-04-25T00:19:42;2.88;;;2.00;;
76103;SDS011;64831;44.870;37.336;2023-04-25T00:22:10;5.15;;;2.35;;
76103;SDS011;64831;44.870;37.336;2023-04-25T00:24:37;6.93;;;2.65;;
76103;SDS011;64831;44.870;37.336;2023-04-25T00:27:03;6.47;;;3.20;;
76103;SDS011;64831;44.870;37.336;2023-04-25T00:29:28;4.22;;;2.17;;
76103;SDS011;64831;44.870;37.336;2023-04-25T00:31:54;7.90;;;3.00;;
76103;SDS011;64831;44.870;37.336;2023-04-25T00:34:20;6.18;;;2.70;;
76103;SDS011;64831;44.870;37.336;2023-04-25T00:36:46;5.72;;;3.55;;
76103;SDS011;64831;44.870;37.336;2023-04-25T00:39:12;2.85;;;2.17;;
76103;SDS011;64831;44.870;37.336;2023-04-25T00:41:38;12.60;;;3.90;;
76103;SDS011;64831;44.870;37.336;2023-04-25T00:44:05;5.22;;;2.63;;
76103;SDS011;64831;44.870;37.336;2023-04-25T00:46:32;9.25;;;4.13;;
76103;SDS011;64831;44.870;37.336;2023-04-25T00:48:58;5.45;;;2.67;;
76103;SDS011;64831;44.870;37.336;2023-04-25T00:51:24;9.55;;;2.95;;
76103;SDS011;64831;44.870;37.336;2023-04-25T00:53:51;4.45;;;3.00;;
76103;SDS011;64831;44.870;37.336;2023-04-25T00:56:18;13.07;;;2.60;;
76103;SDS011;64831;44.870;37.336;2023-04-25T00:58:45;5.00;;;2.83;;
76103;SDS011;64831;44.870;37.336;2023-04-25T01:01:11;4.25;;;2.05;;
76103;SDS011;64831;44.870;37.336;2023-04-25T01:03:38;3.70;;;2.40;;
76103;SDS011;64831;44.870;37.336;2023-04-25T01:06:08;6.45;;;2.88;;
76103;SDS011;64831;44.870;37.336;2023-04-25T01:08:36;4.85;;;1.90;;
76103;SDS011;64831;44.870;37.336;2023-04-25T01:11:03;5.57;;;1.83;;
76103;SDS011;64831;44.870;37.336;2023-04-25T01:13:30;5.82;;;3.13;;
76103;SDS011;64831;44.870;37.336;2023-04-25T01:15:57;13.27;;;4.47;;
76103;SDS011;64831;44.870;37.336;2023-04-25T01:18:24;6.53;;;3.35;;
76103;SDS011;64831;44.870;37.336;2023-04-25T01:20:51;6.13;;;2.65;;
76103;SDS011;64831;44.870;37.336;2023-04-25T01:23:19;8.13;;;3.38;;
76103;SDS011;64831;44.870;37.336;2023-04-25T01:25:46;2.92;;;2.08;;
76103;SDS011;64831;44.870;37.336;2023-04-25T01:28:13;5.43;;;2.47;;
76103;SDS011;64831;44.870;37.336;2023-04-25T01:30:39;5.97;;;3.50;;
76103;SDS011;64831;44.870;37.336;2023-04-25T01:33:07;4.65;;;3.58;;
76103;SDS011;64831;44.870;37.336;2023-04-25T01:35:34;7.68;;;3.15;;
76103;SDS011;64831;44.870;37.336;2023-04-25T01:38:00;4.13;;;2.60;;
76103;SDS011;64831;44.870;37.336;2023-04-25T01:40:26;7.50;;;4.03;;
76103;SDS011;64831;44.870;37.336;2023-04-25T01:42:53;1.85;;;1.60;;
76103;SDS011;64831;44.870;37.336;2023-04-25T01:45:20;5.43;;;3.65;;
76103;SDS011;64831;44.870;37.336;2023-04-25T01:47:47;10.18;;;4.25;;
76103;SDS011;64831;44.870;37.336;2023-04-25T01:50:15;2.92;;;2.35;;
76103;SDS011;64831;44.870;37.336;2023-04-25T01:52:42;10.68;;;2.95;;
76103;SDS011;64831;44.870;37.336;2023-04-25T01:55:09;4.43;;;2.58;;
76103;SDS011;64831;44.870;37.336;2023-04-25T01:57:38;7.70;;;3.85;;
76103;SDS011;64831;44.870;37.336;2023-04-25T02:00:05;5.30;;;3.05;;
76103;SDS011;64831;44.870;37.336;2023-04-25T02:02:39;4.40;;;2.40;;
76103;SDS011;64831;44.870;37.336;2023-04-25T02:05:15;5.45;;;2.85;;
76103;SDS011;64831;44.870;37.336;2023-04-25T02:07:42;5.85;;;3.05;;
76103;SDS011;64831;44.870;37.336;2023-04-25T02:10:10;9.70;;;2.55;;
76103;SDS011;64831;44.870;37.336;2023-04-25T02:12:47;3.17;;;1.73;;
76103;SDS011;64831;44.870;37.336;2023-04-25T02:15:20;5.22;;;1.98;;
76103;SDS011;64831;44.870;37.336;2023-04-25T02:17:52;6.57;;;2.70;;
76103;SDS011;64831;44.870;37.336;2023-04-25T02:20:20;8.05;;;3.20;;
76103;SDS011;64831;44.870;37.336;2023-04-25T02:22:47;4.18;;;2.83;;
76103;SDS011;64831;44.870;37.336;2023-04-25T02:25:13;9.80;;;3.33;;
76103;SDS011;64831;44.870;37.336;2023-04-25T02:27:39;8.75;;;3.10;;
76103;SDS011;64831;44.870;37.336;2023-04-25T02:30:06;6.07;;;3.00;;
76103;SDS011;64831;44.870;37.336;2023-04-25T02:32:33;6.63;;;3.05;;
76103;SDS011;64831;44.870;37.336;2023-04-25T02:35:02;12.57;;;3.85;;
76103;SDS011;64831;44.870;37.336;2023-04-25T02:37:31;11.07;;;4.40;;
76103;SDS011;64831;44.870;37.336;2023-04-25T02:39:58;6.45;;;3.30;;
76103;SDS011;64831;44.870;37.336;2023-04-25T02:42:24;6.95;;;3.35;;
76103;SDS011;64831;44.870;37.336;2023-04-25T02:44:51;8.73;;;3.50;;
76103;SDS011;64831;44.870;37.336;2023-04-25T02:47:17;8.32;;;3.90;;
76103;SDS011;64831;44.870;37.336;2023-04-25T02:49:43;8.68;;;3.83;;
76103;SDS011;64831;44.870;37.336;2023-04-25T02:52:09;4.20;;;2.58;;
76103;SDS011;64831;44.870;37.336;2023-04-25T02:54:35;7.72;;;3.92;;
76103;SDS011;64831;44.870;37.336;2023-04-25T02:57:02;12.85;;;5.40;;
76103;SDS011;64831;44.870;37.336;2023-04-25T02:59:34;9.85;;;4.47;;
76103;SDS011;64831;44.870;37.336;2023-04-25T03:02:00;10.73;;;4.85;;
76103;SDS011;64831;44.870;37.336;2023-04-25T03:04:27;4.88;;;3.33;;
76103;SDS011;64831;44.870;37.336;2023-04-25T03:06:54;10.43;;;4.43;;
76103;SDS011;64831;44.870;37.336;2023-04-25T03:09:20;6.63;;;3.63;;
76103;SDS011;64831;44.870;37.336;2023-04-25T03:11:47;16.17;;;4.63;;
76103;SDS011;64831;44.870;37.336;2023-04-25T03:14:13;8.75;;;3.95;;
76103;SDS011;64831;44.870;37.336;2023-04-25T03:16:39;16.92;;;4.53;;
76103;SDS011;64831;44.870;37.336;2023-04-25T03:19:05;20.65;;;3.72;;
76103;SDS011;64831;44.870;37.336;2023-04-25T03:21:32;11.18;;;3.58;;
76103;SDS011;64831;44.870;37.336;2023-04-25T03:24:00;15.00;;;5.78;;
76103;SDS011;64831;44.870;37.336;2023-04-25T03:26:27;17.08;;;6.65;;
76103;SDS011;64831;44.870;37.336;2023-04-25T03:28:53;18.85;;;7.38;;
76103;SDS011;64831;44.870;37.336;2023-04-25T03:31:19;17.83;;;6.55;;
76103;SDS011;64831;44.870;37.336;2023-04-25T03:33:46;8.85;;;4.38;;
76103;SDS011;64831;44.870;37.336;2023-04-25T03:36:12;8.43;;;3.53;;
76103;SDS011;64831;44.870;37.336;2023-04-25T03:38:38;16.95;;;7.85;;
76103;SDS011;64831;44.870;37.336;2023-04-25T03:41:05;13.95;;;7.05;;
76103;SDS011;64831;44.870;37.336;2023-04-25T03:44:06;10.50;;;5.68;;
76103;SDS011;64831;44.870;37.336;2023-04-25T03:46:32;11.70;;;5.43;;
76103;SDS011;64831;44.870;37.336;2023-04-25T03:48:59;16.98;;;7.13;;
76103;SDS011;64831;44.870;37.336;2023-04-25T03:51:35;4.35;;;2.75;;
76103;SDS011;64831;44.870;37.336;2023-04-25T03:54:01;6.88;;;3.47;;
76103;SDS011;64831;44.870;37.336;2023-04-25T03:56:50;6.85;;;3.63;;
76103;SDS011;64831;44.870;37.336;2023-04-25T04:01:45;8.07;;;3.60;;
76103;SDS011;64831;44.870;37.336;2023-04-25T04:04:12;9.85;;;5.35;;
76103;SDS011;64831;44.870;37.336;2023-04-25T04:06:38;16.05;;;6.15;;
76103;SDS011;64831;44.870;37.336;2023-04-25T04:09:13;8.05;;;4.13;;
76103;SDS011;64831;44.870;37.336;2023-04-25T04:11:42;7.80;;;4.75;;
76103;SDS011;64831;44.870;37.336;2023-04-25T04:14:08;9.70;;;3.70;;
76103;SDS011;64831;44.870;37.336;2023-04-25T04:16:38;8.00;;;4.50;;
76103;SDS011;64831;44.870;37.336;2023-04-25T04:19:04;11.10;;;5.32;;
76103;SDS011;64831;44.870;37.336;2023-04-25T04:21:31;12.35;;;6.32;;
76103;SDS011;64831;44.870;37.336;2023-04-25T04:23:59;16.65;;;7.15;;
76103;SDS011;64831;44.870;37.336;2023-04-25T04:26:28;13.40;;;4.75;;
76103;SDS011;64831;44.870;37.336;2023-04-25T04:29:06;4.00;;;2.55;;
76103;SDS011;64831;44.870;37.336;2023-04-25T04:32:06;6.93;;;3.53;;
76103;SDS011;64831;44.870;37.336;2023-04-25T04:34:35;7.33;;;3.90;;
76103;SDS011;64831;44.870;37.336;2023-04-25T04:37:02;8.75;;;4.10;;
76103;SDS011;64831;44.870;37.336;2023-04-25T04:39:28;10.88;;;5.13;;
76103;SDS011;64831;44.870;37.336;2023-04-25T04:42:02;11.18;;;6.03;;
76103;SDS011;64831;44.870;37.336;2023-04-25T04:44:42;7.30;;;4.13;;
76103;SDS011;64831;44.870;37.336;2023-04-25T04:47:45;6.13;;;3.58;;
76103;SDS011;64831;44.870;37.336;2023-04-25T04:50:32;6.18;;;3.53;;
76103;SDS011;64831;44.870;37.336;2023-04-25T04:53:17;8.75;;;4.78;;
76103;SDS011;64831;44.870;37.336;2023-04-25T04:56:04;12.85;;;5.30;;
76103;SDS011;64831;44.870;37.336;2023-04-25T04:58:56;6.03;;;3.47;;
76103;SDS011;64831;44.870;37.336;2023-04-25T05:01:36;16.15;;;6.20;;
76103;SDS011;64831;44.870;37.336;2023-04-25T05:04:25;11.48;;;5.57;;
76103;SDS011;64831;44.870;37.336;2023-04-25T05:07:09;8.52;;;3.42;;
76103;SDS011;64831;44.870;37.336;2023-04-25T05:10:01;13.48;;;7.07;;
76103;SDS011;64831;44.870;37.336;2023-04-25T05:13:03;18.95;;;6.78;;
76103;SDS011;64831;44.870;37.336;2023-04-25T05:16:01;13.80;;;6.63;;
76103;SDS011;64831;44.870;37.336;2023-04-25T05:18:38;9.27;;;4.63;;
76103;SDS011;64831;44.870;37.336;2023-04-25T05:21:21;6.20;;;4.07;;
76103;SDS011;64831;44.870;37.336;2023-04-25T05:24:26;6.95;;;3.35;;
76103;SDS011;64831;44.870;37.336;2023-04-25T05:27:16;10.68;;;5.18;;
76103;SDS011;64831;44.870;37.336;2023-04-25T05:30:09;12.55;;;6.57;;
76103;SDS011;64831;44.870;37.336;2023-04-25T05:32:55;12.80;;;7.25;;
76103;SDS011;64831;44.870;37.336;2023-04-25T05:35:21;12.18;;;5.75;;
76103;SDS011;64831;44.870;37.336;2023-04-25T05:37:48;12.45;;;6.70;;
76103;SDS011;64831;44.870;37.336;2023-04-25T05:40:14;12.75;;;5.63;;
76103;SDS011;64831;44.870;37.336;2023-04-25T05:42:43;8.18;;;5.32;;
76103;SDS011;64831;44.870;37.336;2023-04-25T05:45:22;12.18;;;6.35;;
76103;SDS011;64831;44.870;37.336;2023-04-25T05:48:03;20.30;;;6.47;;
76103;SDS011;64831;44.870;37.336;2023-04-25T05:50:52;13.05;;;7.38;;
76103;SDS011;64831;44.870;37.336;2023-04-25T05:53:36;18.98;;;7.35;;
76103;SDS011;64831;44.870;37.336;2023-04-25T05:56:03;25.90;;;9.80;;
76103;SDS011;64831;44.870;37.336;2023-04-25T05:58:31;18.10;;;6.50;;
76103;SDS011;64831;44.870;37.336;2023-04-25T06:00:58;14.98;;;6.28;;
76103;SDS011;64831;44.870;37.336;2023-04-25T06:03:24;18.48;;;6.75;;
76103;SDS011;64831;44.870;37.336;2023-04-25T06:05:51;16.98;;;6.40;;
76103;SDS011;64831;44.870;37.336;2023-04-25T06:08:18;16.55;;;8.25;;
76103;SDS011;64831;44.870;37.336;2023-04-25T06:10:44;13.20;;;7.15;;
76103;SDS011;64831;44.870;37.336;2023-04-25T06:13:10;6.07;;;4.05;;
76103;SDS011;64831;44.870;37.336;2023-04-25T06:15:36;9.63;;;4.95;;
76103;SDS011;64831;44.870;37.336;2023-04-25T06:18:02;13.90;;;5.57;;
76103;SDS011;64831;44.870;37.336;2023-04-25T06:20:28;12.75;;;5.63;;
76103;SDS011;64831;44.870;37.336;2023-04-25T06:22:57;8.73;;;4.82;;
76103;SDS011;64831;44.870;37.336;2023-04-25T06:25:32;15.13;;;5.53;;
76103;SDS011;64831;44.870;37.336;2023-04-25T06:27:58;17.17;;;6.00;;
76103;SDS011;64831;44.870;37.336;2023-04-25T06:30:24;22.48;;;4.05;;
76103;SDS011;64831;44.870;37.336;2023-04-25T06:32:55;12.82;;;6.00;;
76103;SDS011;64831;44.870;37.336;2023-04-25T06:35:22;9.57;;;5.38;;
76103;SDS011;64831;44.870;37.336;2023-04-25T06:37:48;10.05;;;4.40;;
76103;SDS011;64831;44.870;37.336;2023-04-25T06:40:17;9.13;;;4.40;;
76103;SDS011;64831;44.870;37.336;2023-04-25T06:42:43;11.65;;;5.10;;
76103;SDS011;64831;44.870;37.336;2023-04-25T06:45:41;12.50;;;5.10;;
76103;SDS011;64831;44.870;37.336;2023-04-25T06:48:08;14.18;;;5.80;;
76103;SDS011;64831;44.870;37.336;2023-04-25T06:50:34;11.02;;;4.80;;
76103;SDS011;64831;44.870;37.336;2023-04-25T06:53:00;7.72;;;3.33;;
76103;SDS011;64831;44.870;37.336;2023-04-25T06:55:28;7.88;;;4.43;;
76103;SDS011;64831;44.870;37.336;2023-04-25T06:58:26;11.13;;;5.63;;
76103;SDS011;64831;44.870;37.336;2023-04-25T07:03:32;7.78;;;4.55;;
76103;SDS011;64831;44.870;37.336;2023-04-25T07:06:04;8.45;;;3.60;;
76103;SDS011;64831;44.870;37.336;2023-04-25T07:08:30;8.02;;;4.00;;
76103;SDS011;64831;44.870;37.336;2023-04-25T07:10:57;4.85;;;3.33;;
76103;SDS011;64831;44.870;37.336;2023-04-25T07:13:23;6.18;;;3.67;;
76103;SDS011;64831;44.870;37.336;2023-04-25T07:15:49;10.48;;;6.30;;
76103;SDS011;64831;44.870;37.336;2023-04-25T07:18:18;14.73;;;6.00;;
76103;SDS011;64831;44.870;37.336;2023-04-25T07:20:44;17.10;;;7.05;;
76103;SDS011;64831;44.870;37.336;2023-04-25T07:23:11;3.40;;;2.40;;
76103;SDS011;64831;44.870;37.336;2023-04-25T07:25:36;4.28;;;2.72;;
76103;SDS011;64831;44.870;37.336;2023-04-25T07:28:03;6.68;;;2.97;;
76103;SDS011;64831;44.870;37.336;2023-04-25T07:30:30;5.30;;;3.80;;
76103;SDS011;64831;44.870;37.336;2023-04-25T07:32:56;9.43;;;4.18;;
76103;SDS011;64831;44.870;37.336;2023-04-25T07:35:22;13.18;;;4.55;;
76103;SDS011;64831;44.870;37.336;2023-04-25T07:37:48;8.55;;;4.13;;
76103;SDS011;64831;44.870;37.336;2023-04-25T07:40:17;7.00;;;4.03;;
76103;SDS011;64831;44.870;37.336;2023-04-25T07:42:48;7.30;;;3.60;;
76103;SDS011;64831;44.870;37.336;2023-04-25T07:47:43;7.53;;;4.00;;
76103;SDS011;64831;44.870;37.336;2023-04-25T07:50:11;11.80;;;4.60;;
76103;SDS011;64831;44.870;37.336;2023-04-25T07:52:37;11.68;;;4.40;;
76103;SDS011;64831;44.870;37.336;2023-04-25T07:55:13;10.20;;;4.18;;
76103;SDS011;64831;44.870;37.336;2023-04-25T07:58:17;7.35;;;3.95;;
76103;SDS011;64831;44.870;37.336;2023-04-25T08:00:49;10.90;;;4.18;;
76103;SDS011;64831;44.870;37.336;2023-04-25T08:03:39;9.25;;;3.65;;
76103;SDS011;64831;44.870;37.336;2023-04-25T08:06:12;10.50;;;4.47;;
76103;SDS011;64831;44.870;37.336;2023-04-25T08:09:07;7.57;;;3.42;;
76103;SDS011;64831;44.870;37.336;2023-04-25T08:11:37;11.40;;;3.70;;
76103;SDS011;64831;44.870;37.336;2023-04-25T08:14:05;18.88;;;10.40;;
76103;SDS011;64831;44.870;37.336;2023-04-25T08:16:32;8.15;;;4.25;;
76103;SDS011;64831;44.870;37.336;2023-04-25T08:18:59;7.95;;;4.10;;
76103;SDS011;64831;44.870;37.336;2023-04-25T08:21:25;6.63;;;3.90;;
76103;SDS011;64831;44.870;37.336;2023-04-25T08:23:54;8.32;;;4.05;;
76103;SDS011;64831;44.870;37.336;2023-04-25T08:26:25;10.68;;;4.10;;
76103;SDS011;64831;44.870;37.336;2023-04-25T08:28:52;12.57;;;4.07;;
76103;SDS011;64831;44.870;37.336;2023-04-25T08:31:18;7.28;;;3.80;;
76103;SDS011;64831;44.870;37.336;2023-04-25T08:33:53;7.35;;;3.53;;
76103;SDS011;64831;44.870;37.336;2023-04-25T08:36:27;4.55;;;2.95;;
76103;SDS011;64831;44.870;37.336;2023-04-25T08:38:53;22.52;;;10.95;;
76103;SDS011;64831;44.870;37.336;2023-04-25T08:41:21;12.05;;;4.82;;
76103;SDS011;64831;44.870;37.336;2023-04-25T08:43:48;8.15;;;3.20;;
76103;SDS011;64831;44.870;37.336;2023-04-25T08:46:17;3.60;;;2.30;;
76103;SDS011;64831;44.870;37.336;2023-04-25T08:49:03;7.80;;;3.08;;
76103;SDS011;64831;44.870;37.336;2023-04-25T08:51:33;6.32;;;3.47;;
76103;SDS011;64831;44.870;37.336;2023-04-25T08:54:09;8.63;;;3.17;;
76103;SDS011;64831;44.870;37.336;2023-04-25T08:56:37;5.15;;;3.40;;
76103;SDS011;64831;44.870;37.336;2023-04-25T08:59:04;6.50;;;2.72;;
76103;SDS011;64831;44.870;37.336;2023-04-25T09:04:03;7.40;;;3.42;;
76103;SDS011;64831;44.870;37.336;2023-04-25T09:06:29;6.95;;;3.17;;
76103;SDS011;64831;44.870;37.336;2023-04-25T09:09:03;5.20;;;2.78;;
76103;SDS011;64831;44.870;37.336;2023-04-25T09:11:30;7.70;;;2.72;;
76103;SDS011;64831;44.870;37.336;2023-04-25T09:14:14;7.07;;;3.63;;
76103;SDS011;64831;44.870;37.336;2023-04-25T09:17:00;9.57;;;3.63;;
76103;SDS011;64831;44.870;37.336;2023-04-25T09:19:40;6.90;;;3.67;;
76103;SDS011;64831;44.870;37.336;2023-04-25T09:22:14;5.63;;;3.63;;
76103;SDS011;64831;44.870;37.336;2023-04-25T09:24:44;7.82;;;3.45;;
76103;SDS011;64831;44.870;37.336;2023-04-25T09:27:19;9.23;;;2.65;;
76103;SDS011;64831;44.870;37.336;2023-04-25T09:30:01;6.40;;;3.58;;
76103;SDS011;64831;44.870;37.336;2023-04-25T09:32:39;8.98;;;3.33;;
76103;SDS011;64831;44.870;37.336;2023-04-25T09:35:10;12.48;;;3.90;;
76103;SDS011;64831;44.870;37.336;2023-04-25T09:37:49;6.55;;;3.40;;
76103;SDS011;64831;44.870;37.336;2023-04-25T09:40:48;11.18;;;3.72;;
76103;SDS011;64831;44.870;37.336;2023-04-25T09:43:25;7.95;;;3.28;;
76103;SDS011;64831;44.870;37.336;2023-04-25T09:45:53;4.55;;;3.53;;
76103;SDS011;64831;44.870;37.336;2023-04-25T09:48:24;9.45;;;3.47;;
76103;SDS011;64831;44.870;37.336;2023-04-25T09:51:03;8.80;;;3.90;;
76103;SDS011;64831;44.870;37.336;2023-04-25T09:53:39;6.63;;;3.22;;
76103;SDS011;64831;44.870;37.336;2023-04-25T09:56:13;9.87;;;3.77;;
76103;SDS011;64831;44.870;37.336;2023-04-25T09:58:40;7.80;;;3.35;;
76103;SDS011;64831;44.870;37.336;2023-04-25T10:01:07;9.23;;;3.90;;
76103;SDS011;64831;44.870;37.336;2023-04-25T10:03:45;12.70;;;3.60;;
76103;SDS011;64831;44.870;37.336;2023-04-25T10:06:26;7.50;;;3.50;;
76103;SDS011;64831;44.870;37.336;2023-04-25T10:08:54;12.82;;;3.75;;
76103;SDS011;64831;44.870;37.336;2023-04-25T10:11:21;9.68;;;3.15;;
76103;SDS011;64831;44.870;37.336;2023-04-25T10:13:49;8.07;;;3.13;;
76103;SDS011;64831;44.870;37.336;2023-04-25T10:16:16;8.57;;;2.95;;
76103;SDS011;64831;44.870;37.336;2023-04-25T10:18:42;6.55;;;2.72;;
76103;SDS011;64831;44.870;37.336;2023-04-25T10:21:08;6.47;;;3.47;;
76103;SDS011;64831;44.870;37.336;2023-04-25T10:23:35;8.15;;;3.47;;
76103;SDS011;64831;44.870;37.336;2023-04-25T10:26:03;11.63;;;3.67;;
76103;SDS011;64831;44.870;37.336;2023-04-25T10:28:29;4.78;;;2.75;;
76103;SDS011;64831;44.870;37.336;2023-04-25T10:33:38;8.02;;;2.83;;
76103;SDS011;64831;44.870;37.336;2023-04-25T10:38:41;8.73;;;2.90;;
76103;SDS011;64831;44.870;37.336;2023-04-25T10:41:09;4.70;;;2.97;;
76103;SDS011;64831;44.870;37.336;2023-04-25T10:48:47;6.25;;;2.05;;
76103;SDS011;64831;44.870;37.336;2023-04-25T10:51:22;10.50;;;2.85;;
76103;SDS011;64831;44.870;37.336;2023-04-25T11:01:44;6.63;;;2.78;;
76103;SDS011;64831;44.870;37.336;2023-04-25T11:04:25;6.03;;;2.85;;
76103;SDS011;64831;44.870;37.336;2023-04-25T11:09:35;4.22;;;2.53;;
76103;SDS011;64831;44.870;37.336;2023-04-25T11:12:04;5.55;;;2.15;;
76103;SDS011;64831;44.870;37.336;2023-04-25T11:14:32;7.10;;;2.67;;
76103;SDS011;64831;44.870;37.336;2023-04-25T11:16:58;8.50;;;2.92;;
76103;SDS011;64831;44.870;37.336;2023-04-25T11:19:25;5.20;;;2.60;;
76103;SDS011;64831;44.870;37.336;2023-04-25T11:21:59;6.47;;;2.72;;
76103;SDS011;64831;44.870;37.336;2023-04-25T11:24:28;10.35;;;2.65;;
76103;SDS011;64831;44.870;37.336;2023-04-25T11:26:56;10.05;;;2.88;;
76103;SDS011;64831;44.870;37.336;2023-04-25T11:29:27;12.77;;;3.50;;
76103;SDS011;64831;44.870;37.336;2023-04-25T11:31:54;8.48;;;3.22;;
76103;SDS011;64831;44.870;37.336;2023-04-25T11:34:23;6.10;;;2.65;;
76103;SDS011;64831;44.870;37.336;2023-04-25T11:36:50;9.73;;;2.67;;
76103;SDS011;64831;44.870;37.336;2023-04-25T11:39:18;10.82;;;3.00;;
76103;SDS011;64831;44.870;37.336;2023-04-25T11:41:45;9.77;;;3.28;;
76103;SDS011;64831;44.870;37.336;2023-04-25T11:44:11;5.18;;;3.03;;
76103;SDS011;64831;44.870;37.336;2023-04-25T11:46:40;8.35;;;3.55;;
76103;SDS011;64831;44.870;37.336;2023-04-25T11:49:07;9.18;;;3.50;;
76103;SDS011;64831;44.870;37.336;2023-04-25T11:51:42;6.40;;;3.53;;
76103;SDS011;64831;44.870;37.336;2023-04-25T11:54:09;5.45;;;2.80;;
76103;SDS011;64831;44.870;37.336;2023-04-25T11:56:37;6.50;;;3.17;;
76103;SDS011;64831;44.870;37.336;2023-04-25T11:59:04;12.70;;;3.80;;
76103;SDS011;64831;44.870;37.336;2023-04-25T12:01:32;8.82;;;3.33;;
76103;SDS011;64831;44.870;37.336;2023-04-25T12:04:19;11.15;;;3.50;;
76103;SDS011;64831;44.870;37.336;2023-04-25T12:06:46;6.45;;;3.33;;
76103;SDS011;64831;44.870;37.336;2023-04-25T12:09:14;7.22;;;3.30;;
76103;SDS011;64831;44.870;37.336;2023-04-25T12:11:47;9.70;;;3.25;;
76103;SDS011;64831;44.870;37.336;2023-04-25T12:14:21;8.75;;;3.30;;
76103;SDS011;64831;44.870;37.336;2023-04-25T12:16:52;5.25;;;2.95;;
76103;SDS011;64831;44.870;37.336;2023-04-25T12:19:20;7.18;;;2.70;;
76103;SDS011;64831;44.870;37.336;2023-04-25T12:21:47;10.75;;;3.25;;
76103;SDS011;64831;44.870;37.336;2023-04-25T12:24:14;9.55;;;3.92;;
76103;SDS011;64831;44.870;37.336;2023-04-25T12:26:52;7.43;;;3.35;;
76103;SDS011;64831;44.870;37.336;2023-04-25T12:29:24;11.85;;;3.83;;
76103;SDS011;64831;44.870;37.336;2023-04-25T12:31:52;10.70;;;2.65;;
76103;SDS011;64831;44.870;37.336;2023-04-25T12:34:21;9.65;;;3.45;;
76103;SDS011;64831;44.870;37.336;2023-04-25T12:36:49;8.60;;;3.72;;
76103;SDS011;64831;44.870;37.336;2023-04-25T12:39:16;5.68;;;3.47;;
76103;SDS011;64831;44.870;37.336;2023-04-25T12:41:49;6.53;;;3.45;;
76103;SDS011;64831;44.870;37.336;2023-04-25T12:44:19;7.38;;;3.20;;
76103;SDS011;64831;44.870;37.336;2023-04-25T12:46:45;6.82;;;3.47;;
76103;SDS011;64831;44.870;37.336;2023-04-25T12:49:12;7.15;;;2.65;;
76103;SDS011;64831;44.870;37.336;2023-04-25T12:51:38;6.93;;;3.13;;
76103;SDS011;64831;44.870;37.336;2023-04-25T12:54:05;7.50;;;3.72;;
76103;SDS011;64831;44.870;37.336;2023-04-25T12:56:34;4.25;;;3.28;;
76103;SDS011;64831;44.870;37.336;2023-04-25T12:59:01;7.38;;;3.38;;
76103;SDS011;64831;44.870;37.336;2023-04-25T13:01:30;6.70;;;3.63;;
76103;SDS011;64831;44.870;37.336;2023-04-25T13:03:57;7.43;;;2.85;;
76103;SDS011;64831;44.870;37.336;2023-04-25T13:06:23;12.23;;;4.47;;
76103;SDS011;64831;44.870;37.336;2023-04-25T13:08:49;8.25;;;2.92;;
76103;SDS011;64831;44.870;37.336;2023-04-25T13:11:15;8.93;;;3.53;;
76103;SDS011;64831;44.870;37.336;2023-04-25T13:13:41;7.53;;;3.80;;
76103;SDS011;64831;44.870;37.336;2023-04-25T13:16:07;7.10;;;3.70;;
76103;SDS011;64831;44.870;37.336;2023-04-25T13:18:34;5.95;;;3.13;;
76103;SDS011;64831;44.870;37.336;2023-04-25T13:21:00;8.25;;;3.88;;
76103;SDS011;64831;44.870;37.336;2023-04-25T13:23:27;7.28;;;3.70;;
76103;SDS011;64831;44.870;37.336;2023-04-25T13:25:54;9.82;;;3.60;;
76103;SDS011;64831;44.870;37.336;2023-04-25T13:28:23;6.70;;;3.88;;
76103;SDS011;64831;44.870;37.336;2023-04-25T13:30:50;10.65;;;4.10;;
76103;SDS011;64831;44.870;37.336;2023-04-25T13:33:17;7.13;;;2.78;;
76103;SDS011;64831;44.870;37.336;2023-04-25T13:35:43;6.35;;;3.53;;
76103;SDS011;64831;44.870;37.336;2023-04-25T13:38:12;5.50;;;3.45;;
76103;SDS011;64831;44.870;37.336;2023-04-25T13:40:38;12.90;;;4.10;;
76103;SDS011;64831;44.870;37.336;2023-04-25T13:43:04;8.80;;;3.72;;
76103;SDS011;64831;44.870;37.336;2023-04-25T13:45:31;9.80;;;4.03;;
76103;SDS011;64831;44.870;37.336;2023-04-25T13:47:57;10.65;;;3.97;;
76103;SDS011;64831;44.870;37.336;2023-04-25T13:50:23;10.55;;;3.65;;
76103;SDS011;64831;44.870;37.336;2023-04-25T13:52:49;6.95;;;3.47;;
76103;SDS011;64831;44.870;37.336;2023-04-25T13:55:15;6.60;;;3.58;;
76103;SDS011;64831;44.870;37.336;2023-04-25T13:57:41;9.00;;;3.53;;
76103;SDS011;64831;44.870;37.336;2023-04-25T14:00:07;12.75;;;4.05;;
76103;SDS011;64831;44.870;37.336;2023-04-25T14:02:36;14.27;;;3.70;;
76103;SDS011;64831;44.870;37.336;2023-04-25T14:05:03;9.15;;;3.72;;
76103;SDS011;64831;44.870;37.336;2023-04-25T14:07:30;7.72;;;3.53;;
76103;SDS011;64831;44.870;37.336;2023-04-25T14:09:56;7.95;;;3.72;;
76103;SDS011;64831;44.870;37.336;2023-04-25T14:12:22;9.63;;;3.50;;
76103;SDS011;64831;44.870;37.336;2023-04-25T14:14:49;12.65;;;4.10;;
76103;SDS011;64831;44.870;37.336;2023-04-25T14:17:15;7.28;;;3.75;;
76103;SDS011;64831;44.870;37.336;2023-04-25T14:19:41;10.38;;;4.05;;
76103;SDS011;64831;44.870;37.336;2023-04-25T14:22:11;10.43;;;2.88;;
76103;SDS011;64831;44.870;37.336;2023-04-25T14:24:37;6.00;;;3.30;;
76103;SDS011;64831;44.870;37.336;2023-04-25T14:27:03;10.90;;;4.47;;
76103;SDS011;64831;44.870;37.336;2023-04-25T14:29:29;10.98;;;3.45;;
76103;SDS011;64831;44.870;37.336;2023-04-25T14:31:56;6.45;;;3.88;;
76103;SDS011;64831;44.870;37.336;2023-04-25T14:34:23;9.10;;;3.22;;
76103;SDS011;64831;44.870;37.336;2023-04-25T14:36:49;11.80;;;4.20;;
76103;SDS011;64831;44.870;37.336;2023-04-25T14:39:15;9.95;;;3.78;;
76103;SDS011;64831;44.870;37.336;2023-04-25T14:41:41;8.45;;;4.05;;
76103;SDS011;64831;44.870;37.336;2023-04-25T14:44:07;9.93;;;3.67;;
76103;SDS011;64831;44.870;37.336;2023-04-25T14:46:33;5.78;;;3.00;;
76103;SDS011;64831;44.870;37.336;2023-04-25T14:49:02;9.05;;;3.28;;
76103;SDS011;64831;44.870;37.336;2023-04-25T14:51:28;7.80;;;3.63;;
76103;SDS011;64831;44.870;37.336;2023-04-25T14:53:55;4.20;;;2.90;;
76103;SDS011;64831;44.870;37.336;2023-04-25T14:56:20;8.82;;;3.40;;
76103;SDS011;64831;44.870;37.336;2023-04-25T14:58:47;8.88;;;4.30;;
76103;SDS011;64831;44.870;37.336;2023-04-25T15:01:13;6.40;;;3.50;;
76103;SDS011;64831;44.870;37.336;2023-04-25T15:03:42;8.98;;;3.75;;
76103;SDS011;64831;44.870;37.336;2023-04-25T15:06:08;7.47;;;3.55;;
76103;SDS011;64831;44.870;37.336;2023-04-25T15:08:34;7.25;;;3.72;;
76103;SDS011;64831;44.870;37.336;2023-04-25T15:11:01;6.90;;;3.65;;
76103;SDS011;64831;44.870;37.336;2023-04-25T15:13:28;5.95;;;2.97;;
76103;SDS011;64831;44.870;37.336;2023-04-25T15:15:54;8.52;;;3.38;;
76103;SDS011;64831;44.870;37.336;2023-04-25T15:18:21;3.05;;;1.58;;